Time,TemperatureF,DewpointF,PressureIn,WindDirection,WindDirectionDegrees,WindSpeedMPH,WindSpeedGustMPH,Humidity,HourlyPrecipIn,Conditions,Clouds,dailyrainin,SoftwareType,DateUTC
2013-05-15 00:01:00,72.0,-99.9,30.13,South,171,0.0,0.0,-999,0.00,,,0.00,,2013-05-15 07:01:00,
2013-05-15 00:11:00,72.0,-99.9,30.13,South,171,0.0,0.0,-999,0.00,,,0.00,,2013-05-15 07:11:00,
2013-05-15 00:22:00,72.0,-99.9,30.13,South,171,0.0,0.0,-999,0.00,,,0.00,,2013-05-15 07:22:00,
2013-05-15 00:32:00,72.0,-99.9,30.13,South,171,0.0,0.0,-999,0.00,,,0.00,,2013-05-15 07:32:00,
2013-05-15 00:42:00,72.0,-99.9,30.13,South,171,0.0,0.0,-999,0.00,,,0.00,,2013-05-15 07:42:00,
2013-05-15 00:52:00,71.0,-99.9,30.13,East,99,0.0,0.0,-999,0.00,,,0.00,,2013-05-15 07:52:00,
2013-05-15 01:02:00,70.0,-99.9,30.13,East,99,0.0,0.0,-999,0.00,,,0.00,,2013-05-15 08:02:00,
2013-05-15 01:12:00,70.0,-99.9,30.13,ESE,115,0.0,0.0,-999,0.00,,,0.00,,2013-05-15 08:12:00,
2013-05-15 01:21:00,70.0,-99.9,30.13,ESE,115,0.0,0.0,-999,0.00,,,0.00,,2013-05-15 08:21:00,
2013-05-15 01:32:00,69.0,-99.9,30.13,ESE,115,0.0,0.0,-999,0.00,,,0.00,,2013-05-15 08:32:00,
2013-05-15 01:42:00,69.0,-99.9,30.13,ENE,74,4.0,6.0,-999,0.00,,,0.00,,2013-05-15 08:42:00,
2013-05-15 01:53:00,69.0,-99.9,30.13,ENE,74,4.0,6.0,-999,0.00,,,0.00,,2013-05-15 08:53:00,
2013-05-15 02:01:00,71.0,-99.9,30.13,East,101,2.0,6.0,-999,0.00,,,0.00,,2013-05-15 09:01:00,
2013-05-15 02:12:00,70.0,-99.9,30.14,SSE,151,0.0,0.0,-999,0.00,,,0.00,,2013-05-15 09:12:00,
2013-05-15 02:22:00,70.0,-99.9,30.14,SSE,151,0.0,0.0,-999,0.00,,,0.00,,2013-05-15 09:22:00,
2013-05-15 02:33:00,69.0,-99.9,30.13,North,358,2.0,11.0,-999,0.00,,,0.00,,2013-05-15 09:33:00,
2013-05-15 02:42:00,69.0,-99.9,30.13,North,358,2.0,11.0,-999,0.00,,,0.00,,2013-05-15 09:42:00,
2013-05-15 02:53:00,69.0,-99.9,30.14,SSW,196,0.0,0.0,-999,0.00,,,0.00,,2013-05-15 09:53:00,
2013-05-15 03:02:00,68.0,-99.9,30.14,SSW,196,0.0,0.0,-999,0.00,,,0.00,,2013-05-15 10:02:00,
2013-05-15 03:13:00,66.0,-99.9,30.14,SW,229,0.0,0.0,-999,0.00,,,0.00,,2013-05-15 10:13:00,
2013-05-15 03:23:00,66.0,-99.9,30.14,SW,229,0.0,0.0,-999,0.00,,,0.00,,2013-05-15 10:23:00,
2013-05-15 03:32:00,67.0,-99.9,30.14,SW,229,0.0,0.0,-999,0.00,,,0.00,,2013-05-15 10:32:00,
2013-05-15 03:43:00,67.0,-99.9,30.14,SW,229,0.0,0.0,-999,0.00,,,0.00,,2013-05-15 10:43:00,
2013-05-15 03:53:00,67.0,-99.9,30.14,SW,229,0.0,0.0,-999,0.00,,,0.00,,2013-05-15 10:53:00,
2013-05-15 04:13:00,66.0,-99.9,30.15,SW,229,0.0,0.0,-999,0.00,,,0.00,,2013-05-15 11:13:00,
2013-05-15 04:19:00,64.0,-99.9,30.16,SW,229,0.0,0.0,-999,0.00,,,0.00,,2013-05-15 11:19:00,
2013-05-15 04:29:00,64.0,-99.9,30.16,SW,229,0.0,0.0,-999,0.00,,,0.00,,2013-05-15 11:29:00,
2013-05-15 04:50:00,64.0,-99.9,30.16,SW,229,0.0,0.0,-999,0.00,,,0.00,,2013-05-15 11:50:00,
2013-05-15 05:02:00,64.0,-99.9,30.16,SW,229,0.0,0.0,-999,0.00,,,0.00,,2013-05-15 12:02:00,
2013-05-15 05:11:00,65.0,-99.9,30.16,SW,229,0.0,0.0,-999,0.00,,,0.00,,2013-05-15 12:11:00,
2013-05-15 05:17:00,66.0,-99.9,30.17,SW,229,0.0,0.0,-999,0.00,,,0.00,,2013-05-15 12:17:00,
2013-05-15 05:30:00,66.0,-99.9,30.17,SW,229,0.0,0.0,-999,0.00,,,0.00,,2013-05-15 12:30:00,
2013-05-15 05:38:00,66.0,-99.9,30.17,SW,229,0.0,0.0,-999,0.00,,,0.00,,2013-05-15 12:38:00,
2013-05-15 05:49:00,66.0,-99.9,30.17,SW,229,0.0,0.0,-999,0.00,,,0.00,,2013-05-15 12:49:00,
2013-05-15 05:58:00,66.0,-99.9,30.17,SW,229,0.0,0.0,-999,0.00,,,0.00,,2013-05-15 12:58:00,
2013-05-15 06:19:00,64.0,-99.9,30.19,SSW,210,0.0,0.0,-999,0.00,,,0.00,,2013-05-15 13:19:00,
2013-05-15 06:28:00,64.0,-99.9,30.19,SSW,210,0.0,0.0,-999,0.00,,,0.00,,2013-05-15 13:28:00,
2013-05-15 06:37:00,66.0,-99.9,30.19,SW,233,0.0,0.0,-999,0.00,,,0.00,,2013-05-15 13:37:00,
2013-05-15 06:48:00,66.0,-99.9,30.19,SW,233,0.0,0.0,-999,0.00,,,0.00,,2013-05-15 13:48:00,
2013-05-15 07:00:00,67.0,-99.9,30.19,SW,233,0.0,0.0,-999,0.00,,,0.00,,2013-05-15 14:00:00,
2013-05-15 07:08:00,69.0,-99.9,30.20,SW,233,0.0,0.0,-999,0.00,,,0.00,,2013-05-15 14:08:00,
2013-05-15 07:14:00,70.0,-99.9,30.20,SSW,209,1.0,6.0,-999,0.00,,,0.00,,2013-05-15 14:14:00,
2013-05-15 07:28:00,70.0,-99.9,30.20,SSW,209,1.0,6.0,-999,0.00,,,0.00,,2013-05-15 14:28:00,
2013-05-15 07:39:00,70.0,-99.9,30.20,South,187,0.0,0.0,-999,0.00,,,0.00,,2013-05-15 14:39:00,
2013-05-15 07:52:00,70.0,-99.9,30.20,South,187,0.0,0.0,-999,0.00,,,0.00,,2013-05-15 14:52:00,
2013-05-15 08:10:00,73.0,-99.9,30.20,South,187,0.0,0.0,-999,0.00,,,0.00,,2013-05-15 15:10:00,
2013-05-15 08:16:00,73.0,-99.9,30.20,South,187,0.0,0.0,-999,0.00,,,0.00,,2013-05-15 15:16:00,
2013-05-15 08:29:00,73.0,-99.9,30.20,South,187,0.0,0.0,-999,0.00,,,0.00,,2013-05-15 15:29:00,
2013-05-15 08:41:00,75.0,-99.9,30.20,South,187,0.0,0.0,-999,0.00,,,0.00,,2013-05-15 15:41:00,
2013-05-15 08:49:00,75.0,-99.9,30.20,South,187,0.0,0.0,-999,0.00,,,0.00,,2013-05-15 15:49:00,
2013-05-15 09:02:00,76.0,-99.9,30.20,South,187,0.0,0.0,-999,0.00,,,0.00,,2013-05-15 16:02:00,
2013-05-15 09:10:00,78.0,-99.9,30.20,NNW,343,0.0,0.0,-999,0.00,,,0.00,,2013-05-15 16:10:00,
2013-05-15 09:24:00,78.0,-99.9,30.20,NW,312,2.0,9.0,-999,0.00,,,0.00,,2013-05-15 16:24:00,
2013-05-15 09:40:00,79.0,-99.9,30.19,North,358,0.0,0.0,-999,0.00,,,0.00,,2013-05-15 16:40:00,
2013-05-15 09:52:00,79.0,-99.9,30.19,North,358,0.0,0.0,-999,0.00,,,0.00,,2013-05-15 16:52:00,
2013-05-15 10:02:00,80.0,-99.9,30.19,WNW,293,0.0,0.0,-999,0.00,,,0.00,,2013-05-15 17:02:00,
2013-05-15 10:13:00,81.0,-99.9,30.18,WSW,240,0.0,3.0,-999,0.00,,,0.00,,2013-05-15 17:13:00,
2013-05-15 10:38:00,83.0,-99.9,30.17,WNW,285,1.0,5.0,-999,0.00,,,0.00,,2013-05-15 17:38:00,
2013-05-15 10:49:00,83.0,-99.9,30.17,WNW,285,1.0,5.0,-999,0.00,,,0.00,,2013-05-15 17:49:00,
2013-05-15 11:17:00,85.0,-99.9,30.17,WNW,289,3.0,13.0,-999,0.00,,,0.00,,2013-05-15 18:17:00,
2013-05-15 11:28:00,85.0,-99.9,30.17,WNW,289,3.0,13.0,-999,0.00,,,0.00,,2013-05-15 18:28:00,
2013-05-15 11:50:00,86.0,-99.9,30.16,NNE,15,0.0,12.0,-999,0.00,,,0.00,,2013-05-15 18:50:00,
2013-05-15 11:59:00,85.0,-99.9,30.15,West,271,2.0,11.0,-999,0.00,,,0.00,,2013-05-15 18:59:00,
2013-05-15 12:09:00,86.0,-99.9,30.15,SW,230,4.0,9.0,-999,0.00,,,0.00,,2013-05-15 19:09:00,
2013-05-15 12:16:00,86.0,-99.9,30.15,SW,230,4.0,9.0,-999,0.00,,,0.00,,2013-05-15 19:16:00,
2013-05-15 12:31:00,87.0,-99.9,30.14,WSW,254,3.0,14.0,-999,0.00,,,0.00,,2013-05-15 19:31:00,
2013-05-15 12:39:00,86.0,-99.9,30.14,NW,305,5.0,12.0,-999,0.00,,,0.00,,2013-05-15 19:39:00,
2013-05-15 12:50:00,86.0,-99.9,30.14,NW,305,5.0,12.0,-999,0.00,,,0.00,,2013-05-15 19:50:00,
2013-05-15 12:59:00,88.0,-99.9,30.13,NW,312,1.0,6.0,-999,0.00,,,0.00,,2013-05-15 19:59:00,
2013-05-15 13:10:00,87.0,-99.9,30.13,WNW,303,6.0,18.0,-999,0.00,,,0.00,,2013-05-15 20:10:00,
2013-05-15 13:20:00,87.0,-99.9,30.13,WNW,303,6.0,18.0,-999,0.00,,,0.00,,2013-05-15 20:20:00,
2013-05-15 13:31:00,87.0,-99.9,30.12,West,272,3.0,8.0,-999,0.00,,,0.00,,2013-05-15 20:31:00,
2013-05-15 14:00:00,88.0,-99.9,30.11,West,268,4.0,12.0,-999,0.00,,,0.00,,2013-05-15 21:00:00,
2013-05-15 14:09:00,88.0,-99.9,30.11,West,274,1.0,8.0,-999,0.00,,,0.00,,2013-05-15 21:09:00,
2013-05-15 14:21:00,88.0,-99.9,30.11,West,274,1.0,8.0,-999,0.00,,,0.00,,2013-05-15 21:21:00,
2013-05-15 14:28:00,88.0,-99.9,30.11,West,271,0.0,9.0,-999,0.00,,,0.00,,2013-05-15 21:28:00,
2013-05-15 14:42:00,89.0,-99.9,30.10,WNW,296,1.0,9.0,-999,0.00,,,0.00,,2013-05-15 21:42:00,
2013-05-15 14:54:00,89.0,-99.9,30.10,WNW,296,1.0,9.0,-999,0.00,,,0.00,,2013-05-15 21:54:00,
2013-05-15 15:01:00,89.0,-99.9,30.09,West,268,0.0,10.0,-999,0.00,,,0.00,,2013-05-15 22:01:00,
2013-05-15 15:12:00,91.0,-99.9,30.08,West,272,0.0,6.0,-999,0.00,,,0.00,,2013-05-15 22:12:00,
2013-05-15 15:19:00,91.0,-99.9,30.08,West,272,0.0,6.0,-999,0.00,,,0.00,,2013-05-15 22:19:00,
2013-05-15 15:30:00,90.0,-99.9,30.08,NNW,333,3.0,12.0,-999,0.00,,,0.00,,2013-05-15 22:30:00,
2013-05-15 15:42:00,90.0,-99.9,30.07,West,278,5.0,14.0,-999,0.00,,,0.00,,2013-05-15 22:42:00,
2013-05-15 15:53:00,90.0,-99.9,30.07,West,278,5.0,14.0,-999,0.00,,,0.00,,2013-05-15 22:53:00,
2013-05-15 16:01:00,90.0,-99.9,30.06,West,274,4.0,15.0,-999,0.00,,,0.00,,2013-05-15 23:01:00,
2013-05-15 16:09:00,90.0,-99.9,30.06,West,278,1.0,7.0,-999,0.00,,,0.00,,2013-05-15 23:09:00,
2013-05-15 16:18:00,90.0,-99.9,30.06,West,278,1.0,7.0,-999,0.00,,,0.00,,2013-05-15 23:18:00,
2013-05-15 16:30:00,89.0,-99.9,30.06,WNW,285,4.0,13.0,-999,0.00,,,0.00,,2013-05-15 23:30:00,
2013-05-15 16:40:00,90.0,-99.9,30.05,West,278,3.0,12.0,-999,0.00,,,0.00,,2013-05-15 23:40:00,
2013-05-15 16:50:00,90.0,-99.9,30.05,West,278,3.0,12.0,-999,0.00,,,0.00,,2013-05-15 23:50:00,
2013-05-15 17:01:00,91.0,-99.9,30.05,WSW,239,0.0,12.0,-999,0.00,,,0.00,,2013-05-16 00:01:00,
2013-05-15 17:09:00,90.0,-99.9,30.05,WNW,293,1.0,9.0,-999,0.00,,,0.00,,2013-05-16 00:09:00,
2013-05-15 17:19:00,91.0,-99.9,30.05,West,278,0.0,9.0,-999,0.00,,,0.00,,2013-05-16 00:19:00,
2013-05-15 17:27:00,91.0,-99.9,30.05,West,278,0.0,9.0,-999,0.00,,,0.00,,2013-05-16 00:27:00,
2013-05-15 17:37:00,93.0,-99.9,30.05,WNW,286,0.0,6.0,-999,0.00,,,0.00,,2013-05-16 00:37:00,
2013-05-15 17:52:00,90.0,-99.9,30.04,WNW,288,1.0,3.0,-999,0.00,,,0.00,,2013-05-16 00:52:00,
2013-05-15 17:59:00,90.0,-99.9,30.04,WNW,288,1.0,3.0,-999,0.00,,,0.00,,2013-05-16 00:59:00,
2013-05-15 18:09:00,89.0,-99.9,30.04,WNW,303,2.0,2.0,-999,0.00,,,0.00,,2013-05-16 01:09:00,
2013-05-15 18:19:00,88.0,-99.9,30.04,SW,232,0.0,6.0,-999,0.00,,,0.00,,2013-05-16 01:19:00,
2013-05-15 18:30:00,88.0,-99.9,30.04,SW,232,0.0,6.0,-999,0.00,,,0.00,,2013-05-16 01:30:00,
2013-05-15 18:50:00,87.0,-99.9,30.04,WSW,257,0.0,7.0,-999,0.00,,,0.00,,2013-05-16 01:50:00,
2013-05-15 19:03:00,86.0,-99.9,30.04,SW,236,0.0,0.0,-999,0.00,,,0.00,,2013-05-16 02:03:00,
2013-05-15 19:08:00,84.0,-99.9,30.04,WSW,257,0.0,10.0,-999,0.00,,,0.00,,2013-05-16 02:08:00,
2013-05-15 19:18:00,84.0,-99.9,30.04,WSW,257,0.0,10.0,-999,0.00,,,0.00,,2013-05-16 02:18:00,
2013-05-15 19:29:00,83.0,-99.9,30.04,WSW,250,0.0,3.0,-999,0.00,,,0.00,,2013-05-16 02:29:00,
2013-05-15 19:40:00,82.0,-99.9,30.04,WSW,250,0.0,0.0,-999,0.00,,,0.00,,2013-05-16 02:40:00,
2013-05-15 19:49:00,82.0,-99.9,30.04,WSW,250,0.0,0.0,-999,0.00,,,0.00,,2013-05-16 02:49:00,
2013-05-15 19:56:00,82.0,-99.9,30.04,WSW,250,0.0,0.0,-999,0.00,,,0.00,,2013-05-16 02:56:00,
2013-05-15 20:07:00,81.0,-99.9,30.05,WSW,250,0.0,0.0,-999,0.00,,,0.00,,2013-05-16 03:07:00,
2013-05-15 20:17:00,80.0,-99.9,30.06,WSW,250,0.0,0.0,-999,0.00,,,0.00,,2013-05-16 03:17:00,
2013-05-15 20:28:00,80.0,-99.9,30.06,WSW,250,0.0,0.0,-999,0.00,,,0.00,,2013-05-16 03:28:00,
2013-05-15 20:47:00,80.0,-99.9,30.06,WSW,250,0.0,0.0,-999,0.00,,,0.00,,2013-05-16 03:47:00,
2013-05-15 21:03:00,79.0,-99.9,30.08,WSW,250,0.0,0.0,-999,0.00,,,0.00,,2013-05-16 04:03:00,
2013-05-15 21:12:00,79.0,-99.9,30.08,WSW,250,0.0,0.0,-999,0.00,,,0.00,,2013-05-16 04:12:00,
2013-05-15 21:23:00,77.0,-99.9,30.09,WSW,250,0.0,0.0,-999,0.00,,,0.00,,2013-05-16 04:23:00,
2013-05-15 21:33:00,77.0,-99.9,30.10,WNW,285,0.0,0.0,-999,0.00,,,0.00,,2013-05-16 04:33:00,
2013-05-15 21:43:00,77.0,-99.9,30.10,WNW,285,0.0,0.0,-999,0.00,,,0.00,,2013-05-16 04:43:00,
2013-05-15 21:53:00,77.0,-99.9,30.10,WNW,302,0.0,0.0,-999,0.00,,,0.00,,2013-05-16 04:53:00,
2013-05-15 22:03:00,77.0,-99.9,30.10,WNW,291,0.0,0.0,-999,0.00,,,0.00,,2013-05-16 05:03:00,
2013-05-15 22:12:00,77.0,-99.9,30.10,WNW,291,0.0,0.0,-999,0.00,,,0.00,,2013-05-16 05:12:00,
2013-05-15 22:22:00,76.0,-99.9,30.11,WNW,291,0.0,0.0,-999,0.00,,,0.00,,2013-05-16 05:22:00,
2013-05-15 22:32:00,75.0,-99.9,30.11,WNW,291,0.0,0.0,-999,0.00,,,0.00,,2013-05-16 05:32:00,
2013-05-15 22:42:00,75.0,-99.9,30.11,WNW,291,0.0,0.0,-999,0.00,,,0.00,,2013-05-16 05:42:00,
2013-05-15 22:52:00,75.0,-99.9,30.11,WNW,291,0.0,0.0,-999,0.00,,,0.00,,2013-05-16 05:52:00,
2013-05-15 23:02:00,74.0,-99.9,30.11,WNW,291,0.0,0.0,-999,0.00,,,0.00,,2013-05-16 06:02:00,
2013-05-15 23:12:00,74.0,-99.9,30.11,WNW,291,0.0,0.0,-999,0.00,,,0.00,,2013-05-16 06:12:00,
2013-05-15 23:23:00,74.0,-99.9,30.11,WNW,291,0.0,0.0,-999,0.00,,,0.00,,2013-05-16 06:23:00,
2013-05-15 23:33:00,73.0,-99.9,30.11,WSW,244,0.0,3.0,-999,0.00,,,0.00,,2013-05-16 06:33:00,
2013-05-15 23:43:00,73.0,-99.9,30.11,WSW,244,0.0,3.0,-999,0.00,,,0.00,,2013-05-16 06:43:00,
2013-05-15 23:53:00,72.0,-99.9,30.11,WSW,244,0.0,0.0,-999,0.00,,,0.00,,2013-05-16 06:53:00,